createdAt,value
2023-04-20T00:06:57.287Z,68.42
2023-04-20T00:17:23.549Z,68.67
2023-04-20T00:27:49.160Z,68.85
2023-04-20T00:38:15.386Z,69.18
2023-04-20T00:48:41.287Z,69.42
2023-04-20T00:59:08.181Z,69.78
2023-04-20T01:09:34.163Z,70.52
2023-04-20T01:20:00.379Z,70.54
2023-04-20T01:30:26.662Z,70.72
2023-04-20T01:40:52.899Z,70.78
2023-04-20T01:51:18.866Z,71.21
2023-04-20T02:01:44.746Z,71.72
2023-04-20T02:12:10.545Z,71.67
2023-04-20T02:22:36.369Z,71.85
2023-04-20T02:33:02.556Z,72.13
2023-04-20T02:43:28.681Z,72.33
2023-04-20T02:53:54.524Z,72.74
2023-04-20T03:04:21.173Z,72.85
2023-04-20T03:14:47.189Z,72.55
2023-04-20T03:25:13.087Z,72.37
2023-04-20T03:35:39.590Z,72.03
2023-04-20T03:46:05.310Z,71.99
2023-04-20T03:56:31.541Z,72.21
2023-04-20T04:06:57.251Z,72.35
2023-04-20T04:17:23.724Z,72.80
2023-04-20T04:27:49.582Z,72.77
2023-04-20T04:38:16.073Z,72.89
2023-04-20T04:48:46.762Z,72.98
2023-04-20T04:59:12.737Z,73.45
2023-04-20T05:09:38.172Z,73.65
2023-04-20T05:20:06.493Z,73.79
2023-04-20T05:30:32.793Z,73.49
2023-04-20T05:40:58.869Z,73.82
2023-04-20T05:51:29.093Z,73.38
2023-04-20T06:01:54.937Z,72.27
2023-04-20T06:12:21.215Z,71.99
2023-04-20T06:22:47.392Z,71.52
2023-04-20T06:33:17.225Z,70.72
2023-04-20T06:43:45.462Z,69.97
2023-04-20T06:54:11.044Z,68.91
2023-04-20T07:04:36.712Z,69.15
2023-04-20T07:15:03.120Z,68.39
2023-04-20T07:25:31.523Z,68.29
2023-04-20T07:35:58.152Z,68.85
2023-04-20T07:46:25.212Z,69.34
2023-04-20T07:56:50.838Z,67.66
2023-04-20T08:07:16.815Z,67.10
2023-04-20T08:17:42.502Z,67.52
2023-04-20T08:28:11.985Z,66.26
2023-04-20T08:38:42.198Z,66.10
2023-04-20T08:49:12.894Z,65.36
2023-04-20T08:59:39.563Z,63.80
2023-04-20T09:10:05.285Z,63.09
2023-04-20T09:20:33.493Z,63.19
2023-04-20T09:30:59.161Z,63.03
2023-04-20T09:41:24.981Z,62.41
2023-04-20T09:51:51.962Z,61.71
2023-04-20T10:02:17.740Z,60.97
2023-04-20T10:12:55.517Z,60.02
2023-04-20T10:23:21.422Z,60.29
2023-04-20T10:33:55.624Z,60.38
2023-04-20T10:44:21.698Z,59.32
2023-04-20T10:54:47.948Z,58.72
2023-04-20T11:05:18.952Z,58.92
2023-04-20T11:15:44.899Z,59.03
2023-04-20T11:26:11.202Z,58.72
2023-04-20T11:36:41.930Z,58.40
2023-04-20T11:47:08.100Z,58.28
2023-04-20T11:57:34.817Z,58.33
2023-04-20T12:08:00.408Z,58.22
2023-04-20T12:18:26.310Z,57.84
2023-04-20T12:28:52.414Z,57.37
2023-04-20T12:39:18.472Z,56.49
2023-04-20T12:49:44.199Z,56.28
2023-04-20T13:00:14.643Z,56.64
2023-04-20T13:10:42.846Z,56.64
2023-04-20T13:21:09.290Z,58.62
2023-04-20T13:31:34.769Z,57.08
2023-04-20T13:42:00.765Z,56.56
2023-04-20T13:52:26.808Z,56.22
2023-04-20T14:02:52.593Z,55.73
2023-04-20T14:13:19.083Z,55.73
2023-04-20T14:23:45.099Z,54.27
2023-04-20T14:34:10.692Z,53.83
2023-04-20T14:44:36.466Z,53.05
2023-04-20T14:55:02.308Z,53.32
2023-04-20T15:05:28.915Z,52.15
2023-04-20T15:15:55.447Z,50.78
2023-04-20T15:26:21.585Z,50.52
2023-04-20T15:36:47.587Z,49.72
2023-04-20T15:47:13.657Z,49.32
2023-04-20T15:57:39.689Z,49.63
2023-04-20T16:08:06.665Z,49.77
2023-04-20T16:18:33.126Z,50.06
2023-04-20T16:28:58.832Z,50.02
2023-04-20T16:39:24.779Z,49.81
2023-04-20T16:49:51.163Z,49.82
2023-04-20T17:00:19.529Z,50.46
2023-04-20T17:10:45.240Z,50.37
2023-04-20T17:21:11.874Z,50.26
2023-04-20T17:31:37.469Z,50.41
2023-04-20T17:42:03.617Z,50.65
2023-04-20T17:52:29.520Z,50.65
2023-04-20T18:02:55.793Z,50.72
2023-04-20T18:13:21.657Z,50.78
2023-04-20T18:23:47.428Z,51.24
2023-04-20T18:34:13.661Z,51.59
2023-04-20T18:44:41.080Z,52.05
2023-04-20T18:55:08.414Z,52.37
2023-04-20T19:05:34.088Z,52.96
2023-04-20T19:15:59.790Z,53.38
2023-04-20T19:26:26.046Z,53.70
2023-04-20T19:36:51.691Z,54.45
2023-04-20T19:47:20.863Z,54.99
2023-04-20T19:57:46.971Z,55.23
2023-04-20T20:08:13.754Z,55.40
2023-04-20T20:18:39.555Z,55.72
2023-04-20T20:29:05.521Z,56.07
2023-04-20T20:39:32.452Z,56.86
2023-04-20T20:49:58.290Z,57.10
2023-04-20T21:00:24.153Z,57.19
2023-04-20T21:10:50.316Z,57.21
2023-04-20T21:21:16.794Z,56.86
2023-04-20T21:31:42.773Z,58.10
2023-04-20T21:42:09.039Z,58.75
2023-04-20T21:52:34.713Z,58.95
2023-04-20T22:03:04.211Z,58.92
2023-04-20T22:13:30.205Z,58.91
2023-04-20T22:23:56.695Z,58.79
2023-04-20T22:34:22.561Z,58.84
2023-04-20T22:44:49.343Z,59.30
2023-04-20T22:55:15.480Z,59.27
2023-04-20T23:05:44.527Z,59.47
2023-04-20T23:16:11.412Z,59.29
2023-04-20T23:26:37.412Z,59.49
2023-04-20T23:37:03.468Z,59.75
2023-04-20T23:47:28.930Z,59.59
2023-04-20T23:57:55.272Z,59.42
